Flight Track Log - Related Links

Times and Time Zones

All times are in EDT time to prevent confusion due to time zone crossing. See the SWA1729 flight status page for this flight to view local times or setup timezone preferences in your user account.


Time Position Orientation Groundspeed Altitude Reporting Facility
EDT Latitude Longitude Course Direction KTS MPH feet Rate Location/Type
Fri 07:29:42 PM 36.1500 -86.6667 360° North 159 183 1,300  Level Nashville TRACON
Fri 07:31:06 PM 36.2167 -86.6667 360° North 239 275 4,200 2,273 Climbing Nashville TRACON
Fri 07:31:54 PM 36.2167 -86.7333 270° West 279 321 6,300 3,268 Climbing Nashville TRACON
Fri 07:33:09 PM 36.1858 -86.8392 250° West 251 289 10,900 3,067 Climbing Memphis Center
Fri 07:34:09 PM 36.1653 -86.9222 253° West 263 303 13,200 2,250 Climbing Memphis Center
Fri 07:35:09 PM 36.1431 -87.0311 256° West 312 359 15,400 2,350 Climbing Memphis Center
Fri 07:36:09 PM 36.1169 -87.1428 254° West 338 389 17,900 2,600 Climbing Memphis Center
Fri 07:37:09 PM 36.0908 -87.2619 255° West 356 410 20,600 2,400 Climbing Memphis Center
Fri 07:38:09 PM 36.0647 -87.3886 256° West 361 415 22,700 2,000 Climbing Memphis Center
Fri 07:39:09 PM 36.0386 -87.5206 256° West 373 429 24,600 1,800 Climbing Memphis Center
Fri 07:40:09 PM 36.0142 -87.6497 257° West 385 443 26,300 2,350 Climbing Memphis Center
Fri 07:41:09 PM 35.9858 -87.7789 255° West 396 456 29,300 2,300 Climbing Memphis Center
Fri 07:42:09 PM 35.9253 -87.8833 234° Southwest 372 428 30,900 1,400 Climbing Memphis Center
Fri 07:43:09 PM 35.8503 -87.9831 227° Southwest 389 448 32,100 1,300 Climbing Memphis Center
Fri 07:44:09 PM 35.7769 -88.0822 228° Southwest 396 456 33,500 1,300 Climbing Memphis Center
Fri 07:45:09 PM 35.7075 -88.1686 225° Southwest 396 456 34,700 1,250 Climbing Memphis Center
Fri 07:46:09 PM 35.6342 -88.2675 228° Southwest 391 450 36,000 700 Climbing Memphis Center
Fri 07:47:09 PM 35.5547 -88.3742 228° Southwest 391 450 36,100 50 Climbing Memphis Center
Fri 07:48:09 PM 35.4789 -88.4703 226° Southwest 397 457 36,100  Level Memphis Center
Fri 07:49:09 PM 35.4197 -88.5481 227° Southwest 397 457 36,100  Level Memphis Center
Fri 07:50:09 PM 35.3397 -88.6592 229° Southwest 397 457 36,100  Level Memphis Center
Fri 07:51:09 PM 35.2661 -88.7575 227° Southwest 391 450 36,100  Level Memphis Center
Fri 07:52:09 PM 35.1986 -88.8603 231° Southwest 396 456 36,100 -50 Level Memphis Center
Fri 07:53:09 PM 35.1436 -88.9756 240° Southwest 396 456 36,000  Descending Memphis Center
Fri 07:54:09 PM 35.0758 -89.0908 234° Southwest 396 456 36,100 50 Climbing Memphis Center
Fri 07:55:09 PM 34.9933 -89.1861 223° Southwest 394 453 36,100  Level Memphis Center
Fri 07:56:09 PM 34.9131 -89.2858 226° Southwest 403 464 36,100  Level Memphis Center
Fri 07:57:09 PM 34.8303 -89.3831 224° Southwest 410 472 36,100  Level Memphis Center
Fri 07:58:09 PM 34.7475 -89.4800 224° Southwest 415 478 36,100  Level Memphis Center
Fri 07:59:09 PM 34.6669 -89.5769 225° Southwest 415 478 36,100 -50 Level Memphis Center
Fri 08:00:09 PM 34.5944 -89.6658 225° Southwest 410 472 36,000  Descending Memphis Center
Fri 08:01:09 PM 34.5197 -89.7597 226° Southwest 403 464 36,100 50 Climbing Memphis Center
Fri 08:02:09 PM 34.4408 -89.8533 224° Southwest 403 464 36,100  Level Memphis Center
Fri 08:03:09 PM 34.3619 -89.9469 224° Southwest 403 464 36,100  Level Memphis Center
Fri 08:04:09 PM 34.2828 -90.0406 224° Southwest 403 464 36,100  Level Memphis Center
Fri 08:05:09 PM 34.1975 -90.1436 225° Southwest 398 458 36,100  Level Memphis Center
Fri 08:06:09 PM 34.1206 -90.2342 224° Southwest 398 458 36,100  Level Memphis Center
Fri 08:07:09 PM 34.0433 -90.3269 225° Southwest 398 458 36,100  Level Memphis Center
Fri 08:08:09 PM 33.9661 -90.4172 224° Southwest 391 450 36,100  Level Memphis Center
Fri 08:09:09 PM 33.8867 -90.5097 224° Southwest 396 456 36,100  Level Memphis Center
Fri 08:10:09 PM 33.8114 -90.5997 225° Southwest 391 450 36,100  Level Memphis Center
Fri 08:11:09 PM 33.7339 -90.6894 224° Southwest 391 450 36,100  Level Memphis Center
Fri 08:12:09 PM 33.6608 -90.7764 225° Southwest 386 444 36,100  Level Memphis Center
Fri 08:13:09 PM 33.5811 -90.8658 223° Southwest 386 444 36,100  Level Memphis Center
Fri 08:14:09 PM 33.5014 -90.9550 223° Southwest 386 444 36,100  Level Memphis Center
Fri 08:15:09 PM 33.4236 -91.0467 225° Southwest 386 444 36,100  Level Memphis Center
Fri 08:16:09 PM 33.3481 -91.1356 225° Southwest 386 444 36,100  Level Memphis Center
Fri 08:17:09 PM 33.2703 -91.2244 224° Southwest 386 444 36,100  Level Memphis Center
Fri 08:19:05 PM 33.1219 -91.3931 224° Southwest 355 409 36,100  Level Houston Center
Fri 08:20:07 PM 33.0422 -91.4861 224° Southwest 385 443 36,100  Level Fort Worth Center
Fri 08:21:07 PM 32.9628 -91.5731 223° Southwest 385 443 36,100  Level Fort Worth Center
Fri 08:22:07 PM 32.8856 -91.6597 223° Southwest 385 443 36,100  Level Fort Worth Center
Fri 08:23:07 PM 32.8081 -91.7514 225° Southwest 390 449 36,100  Level Fort Worth Center
Fri 08:25:16 PM 32.6353 -91.9422 223° Southwest 392 451 36,100  Level Houston Center
Fri 08:26:18 PM 32.5572 -92.0314 224° Southwest 389 448 36,100 -48 Level Houston Center
Fri 08:27:20 PM 32.4756 -92.1222 223° Southwest 390 449 36,000 -48 Descending Houston Center
Fri 08:28:22 PM 32.3956 -92.2083 222° Southwest 387 445 36,000  Level Houston Center
Fri 08:29:24 PM 32.3167 -92.2961 223° Southwest 387 445 36,000  Level Houston Center
Fri 08:30:26 PM 32.2381 -92.3836 223° Southwest 388 447 36,000  Level Houston Center
Fri 08:31:27 PM 32.1589 -92.4708 223° Southwest 389 448 36,000  Level Houston Center
Fri 08:32:29 PM 32.0800 -92.5594 224° Southwest 391 450 36,000  Level Houston Center
Fri 08:33:31 PM 31.9850 -92.6636 223° Southwest 389 448 36,000  Level Houston Center
Fri 08:34:33 PM 31.9094 -92.7556 226° Southwest 390 449 36,000  Level Houston Center
Fri 08:35:35 PM 31.8361 -92.8475 227° Southwest 388 447 36,000  Level Houston Center
Fri 08:36:37 PM 31.7633 -92.9403 227° Southwest 387 445 36,000  Level Houston Center
Fri 08:37:39 PM 31.6928 -93.0358 229° Southwest 386 444 36,000  Level Houston Center
Fri 08:38:41 PM 31.6183 -93.1286 227° Southwest 389 448 36,000  Level Houston Center
Fri 08:39:43 PM 31.5297 -93.2400 227° Southwest 390 449 36,000 49 Level Houston Center
Fri 08:40:44 PM 31.4611 -93.3261 227° Southwest 387 445 36,100 49 Climbing Houston Center
Fri 08:41:46 PM 31.3881 -93.4189 227° Southwest 390 449 36,100  Level Houston Center
Fri 08:42:48 PM 31.2994 -93.5286 227° Southwest 390 449 36,100 -290 Level Houston Center
Fri 08:43:50 PM 31.2361 -93.6078 227° Southwest 387 445 35,500 -774 Descending Houston Center
Fri 08:44:52 PM 31.1633 -93.6997 227° Southwest 388 447 34,500 -1,065 Descending Houston Center
Fri 08:45:54 PM 31.0753 -93.8097 227° Southwest 388 447 33,300 -1,016 Descending Houston Center
Fri 08:46:56 PM 30.9983 -93.9033 226° Southwest 392 451 32,400 -878 Descending Houston Center
Fri 08:47:57 PM 30.9250 -93.9933 226° Southwest 394 453 31,500 -927 Descending Houston Center
Fri 08:48:59 PM 30.8494 -94.0869 227° Southwest 399 459 30,500 -968 Descending Houston Center
Fri 08:50:01 PM 30.7711 -94.1819 226° Southwest 407 468 29,500 -1,984 Descending Houston Center
Fri 08:51:03 PM 30.6764 -94.2967 226° Southwest 411 473 26,400 -2,732 Descending Houston Center
Fri 08:52:04 PM 30.6019 -94.3875 226° Southwest 395 455 23,900 -2,474 Descending Houston Center
Fri 08:52:40 PM 30.5550 -94.4439 226° Southwest 384 442 22,400 -2,323 Descending Houston Center
Fri 08:53:06 PM 30.5297 -94.4750 227° Southwest 381 438 21,500 -2,328 Descending Houston Center
Fri 08:53:47 PM 30.4803 -94.5408 229° Southwest 368 423 19,800 -2,516 Descending Houston Center
Fri 08:54:08 PM 30.4575 -94.5736 231° Southwest 368 423 18,900 -2,066 Descending Houston Center
Fri 08:54:48 PM 30.4222 -94.6333 236° Southwest 354 407 17,700 -1,742 Descending Houston Center
Fri 08:55:10 PM 30.4044 -94.6581 230° Southwest 353 406 17,100 -2,361 Descending Houston Center
Fri 08:55:49 PM 30.3597 -94.7286 234° Southwest 343 395 15,300 -2,459 Descending Houston Center
Fri 08:56:11 PM 30.3478 -94.7478 234° Southwest 345 397 14,600 -2,571 Descending Houston Center
Fri 08:56:45 PM 30.3047 -94.8106 232° Southwest 344 396 12,900 -1,935 Descending Houston Center
Fri 08:57:13 PM 30.2894 -94.8367 236° Southwest 348 400 12,600 -984 Descending Houston Center
Fri 08:57:46 PM 30.2500 -94.8975 233° Southwest 332 382 11,900 -1,065 Descending Houston Center
Fri 08:58:15 PM 30.2364 -94.9208 236° Southwest 328 377 11,500 -1,082 Descending Houston Center
Fri 08:58:47 PM 30.1986 -94.9764 232° Southwest 303 349 10,800 -1,180 Descending Houston Center
Fri 08:59:16 PM 30.1758 -95.0119 233° Southwest 298 343 10,300 -787 Descending Houston Center
Fri 08:59:48 PM 30.1489 -95.0528 233° Southwest 296 341 10,000 -290 Descending Houston Center
Fri 09:00:18 PM 30.1178 -95.0778 215° Southwest 302 348 10,000 98 Level Houston Center
Fri 09:00:49 PM 30.0733 -95.0983 202° Southwest 293 337 10,100  Climbing Houston Center
Fri 09:01:19 PM 30.0417 -95.1119 200° South 296 341 10,000 -295 Descending Houston Center
Fri 09:01:50 PM 30.0006 -95.1289 200° South 247 284 9,800 -484 Descending Houston Center
Fri 09:02:21 PM 29.9764 -95.1400 202° Southwest 255 293 9,500 -882 Descending Houston Center
Fri 09:02:58 PM 29.9361 -95.1561 199° South 222 255 8,800 -1,082 Descending Houston Center
Fri 09:03:22 PM 29.9194 -95.1639 202° Southwest 221 254 8,400 -689 Descending Houston Center
Fri 09:03:59 PM 29.8772 -95.1803 199° South 202 232 8,100 -290 Descending Houston Center
Fri 09:04:24 PM 29.8628 -95.1847 195° South 214 246 8,100 -492 Level Houston Center
Fri 09:05:00 PM 29.8178 -95.1947 191° South 227 261 7,600 -689 Descending Houston Center
Fri 09:05:25 PM 29.8033 -95.1981 191° South 218 251 7,400 -1,082 Descending Houston Center
Fri 09:06:01 PM 29.7592 -95.2189 202° Southwest 214 246 6,500 -1,258 Descending Houston Center
Fri 09:06:27 PM 29.7386 -95.2317 208° Southwest 212 244 6,100 -492 Descending Houston Center
Fri 09:07:02 PM 29.7053 -95.2494 205° Southwest 210 242 6,000 -98 Descending Houston Center
Fri 09:07:28 PM 29.6858 -95.2600 205° Southwest 212 244 6,000  Level Houston Center
Fri 09:08:03 PM 29.6558 -95.2819 212° Southwest 202 232 6,000  Level Houston Center
Fri 09:08:29 PM 29.6492 -95.3050 252° West 220 253 6,000 -387 Level Houston Center
Fri 09:09:05 PM 29.6472 -95.3478 267° West 220 253 5,600 -871 Descending Houston Center
Fri 09:09:31 PM 29.6478 -95.3742 271° West 220 253 5,100 -1,400 Descending Houston Center
Fri 09:10:05 PM 29.6475 -95.4200 270° West 226 260 4,200 -1,279 Descending Houston Center
Fri 09:10:32 PM 29.6603 -95.4433 302° West 230 265 3,800 -1,258 Descending Houston Center
Fri 09:11:07 PM 29.7000 -95.4664 333° Northwest 240 276 2,900 -1,161 Descending Houston Center
Fri 09:11:34 PM 29.7153 -95.4544 34° Northeast 238 274 2,600 -982 Descending Houston Center
Fri 09:12:02 PM 29.7311 -95.4169 64° Northeast 212 244 2,000 -590 Descending Houston Center
Fri 09:12:35 PM 29.7278 -95.3944 100° East 218 251 2,000 -179 Level Houston Center
Fri 09:13:09 PM 29.7111 -95.3594 119° Southeast 170 196 1,800 -387 Descending Houston Center
Fri 09:13:37 PM 29.7039 -95.3497 131° Southeast 182 209 1,600 -689 Descending Houston Center
Fri 09:14:10 PM 29.6853 -95.3289 136° Southeast 115 132 1,100 -787 Descending Houston Center
Fri 09:14:38 PM 29.6747 -95.3150 131° Southeast 144 166 800 -689 Descending Houston Center
Fri 09:15:11 PM 29.6614 -95.2981 132° Southeast 122 140 400 -581 Descending Houston Center
Fri 09:15:40 PM 29.6519 -95.2881 137° Southeast 128 147 200 -414 Descending Houston Center

Login

Don't have an account? Register now (free) for customized features, flight alerts, and more!